Time;durP1;ratioP1;P1;durP2;ratioP2;P2;SDS_P1;SDS_P2;PMS_P1;PMS_P2;Temp;Humidity;BMP_temperature;BMP_pressure;BME280_temperature;BME280_humidity;BME280_pressure;Samples;Min_cycle;Max_cycle;Signal;HPM_P1;HPM_P2
2022/02/28 00:02:04;;;;;;;17.27;1.90;;;23.20;99.90;;;;;;5032977;28;20091;-65
2022/02/28 00:04:31;;;;;;;16.65;2.50;;;23.10;99.90;;;;;;5031973;28;20041;-65
2022/02/28 00:06:58;;;;;;;10.98;2.00;;;22.90;99.90;;;;;;5032351;28;20021;-65
2022/02/28 00:09:26;;;;;;;13.20;2.40;;;22.70;99.90;;;;;;5031062;28;20064;-65
2022/02/28 00:11:53;;;;;;;10.45;1.98;;;22.60;99.90;;;;;;5033013;28;20068;-66
2022/02/28 00:14:21;;;;;;;14.60;3.20;;;22.60;99.90;;;;;;5019655;28;20042;-66
2022/02/28 00:16:49;;;;;;;16.92;2.58;;;22.50;99.90;;;;;;5030288;28;20026;-65
2022/02/28 00:19:16;;;;;;;10.27;2.75;;;22.10;99.90;;;;;;5027505;28;20034;-66
2022/02/28 00:21:44;;;;;;;9.63;1.67;;;21.90;99.90;;;;;;5034750;28;20030;-66
2022/02/28 00:24:11;;;;;;;10.93;2.35;;;21.90;99.90;;;;;;5029785;28;20035;-65
2022/02/28 00:26:38;;;;;;;8.27;2.00;;;21.90;99.90;;;;;;5031786;28;20017;-66
2022/02/28 00:29:05;;;;;;;8.82;1.80;;;21.90;99.90;;;;;;5031682;28;20029;-65
2022/02/28 00:31:33;;;;;;;15.43;3.08;;;22.00;99.90;;;;;;5033213;28;20108;-66
2022/02/28 00:34:00;;;;;;;14.32;2.85;;;21.80;99.90;;;;;;5014496;28;20052;-66
2022/02/28 00:36:28;;;;;;;11.55;2.22;;;21.80;99.90;;;;;;5031766;28;20029;-66
2022/02/28 00:38:56;;;;;;;20.90;3.90;;;21.90;99.90;;;;;;5010353;28;20100;-66
2022/02/28 00:41:23;;;;;;;17.27;3.10;;;22.00;99.90;;;;;;5028394;28;20653;-65
2022/02/28 00:43:50;;;;;;;10.98;2.10;;;22.00;99.90;;;;;;5030496;28;20056;-65
2022/02/28 00:46:18;;;;;;;13.40;2.63;;;21.80;99.90;;;;;;5027971;28;20025;-65
2022/02/28 00:48:45;;;;;;;6.30;1.45;;;21.70;99.90;;;;;;4997653;28;20044;-65
2022/02/28 00:51:12;;;;;;;10.20;2.20;;;21.60;99.90;;;;;;5031935;28;20029;-66
2022/02/28 00:53:40;;;;;;;11.77;2.05;;;21.60;99.90;;;;;;5033044;28;20025;-66
2022/02/28 00:56:07;;;;;;;9.75;1.70;;;21.60;99.90;;;;;;5032795;28;20033;-66
2022/02/28 00:58:34;;;;;;;9.23;1.65;;;21.50;99.90;;;;;;5029532;28;20034;-66
2022/02/28 01:01:02;;;;;;;10.85;1.55;;;21.40;99.90;;;;;;5034745;28;20030;-66
2022/02/28 01:03:29;;;;;;;10.10;1.80;;;21.50;99.90;;;;;;5018876;28;20113;-66
2022/02/28 01:05:56;;;;;;;8.18;2.08;;;21.60;99.90;;;;;;5033358;28;20478;-66
2022/02/28 01:08:24;;;;;;;11.75;1.88;;;21.50;99.90;;;;;;5030669;28;20079;-65
2022/02/28 01:10:52;;;;;;;5.50;1.42;;;21.40;99.90;;;;;;5033613;28;20078;-66
2022/02/28 01:13:19;;;;;;;6.50;1.35;;;21.50;99.90;;;;;;5033276;28;20033;-65
2022/02/28 01:15:46;;;;;;;12.57;2.08;;;21.70;99.90;;;;;;5034240;28;20036;-66
2022/02/28 01:18:14;;;;;;;9.82;2.22;;;21.70;99.90;;;;;;5023273;28;20168;-66
2022/02/28 01:20:41;;;;;;;8.00;1.25;;;21.70;99.90;;;;;;5020323;28;20025;-65
2022/02/28 01:23:09;;;;;;;10.52;2.03;;;21.90;99.90;;;;;;5031885;28;20065;-66
2022/02/28 01:25:36;;;;;;;13.02;3.15;;;21.90;99.90;;;;;;5027476;28;20120;-66
2022/02/28 01:28:03;;;;;;;6.68;1.83;;;22.10;99.90;;;;;;5028012;28;20474;-66
2022/02/28 01:30:31;;;;;;;7.53;1.52;;;22.10;99.90;;;;;;5032373;28;20022;-66
2022/02/28 01:32:58;;;;;;;7.32;1.50;;;21.90;99.90;;;;;;5030363;28;20568;-65
2022/02/28 01:35:25;;;;;;;9.23;1.67;;;21.80;99.90;;;;;;5030899;28;20371;-66
2022/02/28 01:37:53;;;;;;;9.00;1.95;;;21.70;99.90;;;;;;5030245;28;20555;-66
2022/02/28 01:40:20;;;;;;;9.82;1.95;;;21.80;99.90;;;;;;5029478;28;20147;-66
2022/02/28 01:42:48;;;;;;;8.85;1.92;;;21.70;99.90;;;;;;5038771;23;20057;-65
2022/02/28 01:45:21;;;;;;;6.03;1.52;;;21.60;99.90;;;;;;5064020;28;20029;-65
2022/02/28 01:47:54;;;;;;;13.93;2.20;;;21.40;99.90;;;;;;5068731;28;20032;-65
2022/02/28 01:50:22;;;;;;;9.85;1.73;;;21.40;99.90;;;;;;5071009;28;20037;-66
2022/02/28 01:52:50;;;;;;;8.40;1.95;;;21.50;99.90;;;;;;5072874;28;20102;-66
2022/02/28 01:55:19;;;;;;;8.60;1.60;;;21.60;99.90;;;;;;5071215;28;20119;-65
2022/02/28 01:57:48;;;;;;;9.57;1.95;;;21.50;99.90;;;;;;5069684;28;20035;-65
2022/02/28 02:00:18;;;;;;;9.02;2.25;;;21.40;99.90;;;;;;5069685;28;20040;-66
2022/02/28 02:02:46;;;;;;;6.25;1.00;;;21.50;99.90;;;;;;5070050;28;20055;-66
2022/02/28 02:05:14;;;;;;;11.20;2.63;;;21.60;99.90;;;;;;5065053;28;20387;-66
2022/02/28 02:07:41;;;;;;;13.90;2.33;;;21.70;99.90;;;;;;5071139;28;20025;-66
2022/02/28 02:10:12;;;;;;;11.45;3.20;;;21.80;99.90;;;;;;5068210;28;20431;-66
2022/02/28 02:12:41;;;;;;;13.32;2.78;;;21.80;99.90;;;;;;5072781;28;20032;-66
2022/02/28 02:15:10;;;;;;;10.38;2.72;;;22.00;99.90;;;;;;5061520;28;20036;-66
2022/02/28 02:17:39;;;;;;;12.02;2.75;;;22.10;99.90;;;;;;5063031;28;20029;-66
2022/02/28 02:20:11;;;;;;;14.63;3.13;;;22.00;99.90;;;;;;5065663;28;20540;-66
2022/02/28 02:23:13;;;;;;;13.27;3.10;;;22.10;99.90;;;;;;5069100;28;20024;-66
2022/02/28 02:25:42;;;;;;;12.20;3.75;;;22.10;99.90;;;;;;5066931;28;20078;-66
2022/02/28 02:28:10;;;;;;;12.90;2.60;;;22.20;99.90;;;;;;5059215;28;20077;-66
2022/02/28 02:30:38;;;;;;;13.45;2.20;;;22.30;99.90;;;;;;5062636;28;20029;-66
2022/02/28 02:33:06;;;;;;;13.27;3.50;;;22.30;99.90;;;;;;5062405;28;20034;-66
2022/02/28 02:35:33;;;;;;;7.50;1.80;;;22.50;99.90;;;;;;5067306;28;20407;-66
2022/02/28 02:38:00;;;;;;;12.23;2.50;;;22.50;99.90;;;;;;5074012;28;20032;-66
2022/02/28 02:40:28;;;;;;;12.68;2.30;;;22.50;99.90;;;;;;5064518;28;20489;-66
2022/02/28 02:42:55;;;;;;;11.60;2.40;;;22.60;99.90;;;;;;5063052;28;20028;-66
2022/02/28 02:45:22;;;;;;;10.68;1.95;;;22.80;99.90;;;;;;5063819;28;20029;-66
2022/02/28 02:47:50;;;;;;;8.40;1.48;;;22.80;99.90;;;;;;5072742;28;20389;-66
2022/02/28 02:50:17;;;;;;;10.18;1.90;;;22.80;99.90;;;;;;5073290;28;20496;-66
2022/02/28 02:52:44;;;;;;;8.57;1.92;;;23.00;99.90;;;;;;5066719;28;20031;-66
2022/02/28 02:55:12;;;;;;;11.98;2.13;;;23.00;99.90;;;;;;5066311;28;20879;-66
2022/02/28 02:57:39;;;;;;;12.57;1.90;;;23.10;99.90;;;;;;5069357;28;20064;-66
2022/02/28 03:00:10;;;;;;;15.38;2.40;;;23.30;99.90;;;;;;5059825;28;20037;-67
2022/02/28 03:02:38;;;;;;;8.32;1.98;;;23.40;99.90;;;;;;5067171;28;20048;-66
2022/02/28 03:05:05;;;;;;;8.27;2.00;;;23.30;99.90;;;;;;5062871;28;20496;-66
2022/02/28 03:07:33;;;;;;;9.52;1.58;;;23.40;99.90;;;;;;5071761;28;20178;-66
2022/02/28 03:10:00;;;;;;;9.68;1.50;;;23.40;99.90;;;;;;5065092;28;20029;-66
2022/02/28 03:12:27;;;;;;;11.15;2.00;;;23.40;99.90;;;;;;5070635;28;20044;-66
2022/02/28 03:14:54;;;;;;;11.23;1.38;;;23.50;99.90;;;;;;5071615;28;20062;-66
2022/02/28 03:17:22;;;;;;;7.68;1.30;;;23.60;99.90;;;;;;5062863;28;20021;-66
2022/02/28 03:19:49;;;;;;;5.45;1.40;;;23.70;99.90;;;;;;5071365;28;20533;-66
2022/02/28 03:22:16;;;;;;;9.25;1.52;;;23.70;99.90;;;;;;5072888;28;20042;-66
2022/02/28 03:24:44;;;;;;;5.25;1.13;;;23.70;99.90;;;;;;5073697;28;20033;-66
2022/02/28 03:27:11;;;;;;;8.05;1.35;;;23.80;99.90;;;;;;5068705;28;20021;-66
2022/02/28 03:29:38;;;;;;;9.63;2.00;;;23.80;99.90;;;;;;5073118;28;20062;-66
2022/02/28 03:32:06;;;;;;;6.95;1.30;;;23.80;99.90;;;;;;5069622;28;20077;-66
2022/02/28 03:34:33;;;;;;;7.15;1.45;;;23.80;99.90;;;;;;5068380;28;20021;-66
2022/02/28 03:37:00;;;;;;;6.75;0.88;;;23.90;99.90;;;;;;5071173;28;20423;-66
2022/02/28 03:39:28;;;;;;;7.93;1.90;;;23.80;99.90;;;;;;5069072;28;20021;-66
2022/02/28 03:41:55;;;;;;;5.68;1.10;;;23.80;99.90;;;;;;5057068;28;20016;-66
2022/02/28 03:44:23;;;;;;;8.35;1.70;;;23.90;99.90;;;;;;5073654;28;20052;-66
2022/02/28 03:46:51;;;;;;;7.45;1.73;;;24.00;99.90;;;;;;5074195;28;20034;-66
2022/02/28 03:49:20;;;;;;;9.90;1.80;;;24.00;99.90;;;;;;5087925;28;20032;-66
2022/02/28 03:51:48;;;;;;;11.57;1.88;;;24.10;99.90;;;;;;5071269;28;20047;-66
2022/02/28 03:54:15;;;;;;;7.00;1.75;;;24.10;99.90;;;;;;5067036;28;20033;-66
2022/02/28 03:56:44;;;;;;;10.75;2.20;;;24.10;99.90;;;;;;5070764;28;20041;-66
2022/02/28 03:59:13;;;;;;;9.38;2.55;;;24.20;99.90;;;;;;5076365;28;20024;-66
2022/02/28 04:01:41;;;;;;;9.20;1.83;;;24.20;99.90;;;;;;5063400;28;20089;-66
2022/02/28 04:04:10;;;;;;;11.18;1.40;;;24.10;99.90;;;;;;5072431;28;20115;-66
2022/02/28 04:06:37;;;;;;;8.23;1.98;;;24.10;99.90;;;;;;5078346;28;20025;-66
2022/02/28 04:09:06;;;;;;;9.50;1.60;;;24.10;99.90;;;;;;5074577;28;20040;-67
2022/02/28 04:11:34;;;;;;;14.05;3.33;;;24.10;99.90;;;;;;5088558;28;20435;-67
2022/02/28 04:14:01;;;;;;;12.93;2.20;;;24.20;99.90;;;;;;5071078;28;20545;-67
2022/02/28 04:16:29;;;;;;;14.15;1.77;;;24.20;99.90;;;;;;5074413;28;20024;-67
2022/02/28 04:18:56;;;;;;;8.68;1.65;;;24.30;99.90;;;;;;5070453;28;20366;-67
2022/02/28 04:21:23;;;;;;;12.23;2.08;;;24.30;99.90;;;;;;5071400;28;20078;-67
2022/02/28 04:23:51;;;;;;;12.65;2.55;;;24.30;99.90;;;;;;5072137;28;20067;-66
2022/02/28 04:26:20;;;;;;;9.18;1.98;;;24.30;99.90;;;;;;5063473;28;20040;-67
2022/02/28 04:28:48;;;;;;;13.73;2.50;;;24.30;99.90;;;;;;5064505;28;20029;-67
2022/02/28 04:31:15;;;;;;;15.57;2.63;;;24.30;99.90;;;;;;5075762;28;20158;-66
2022/02/28 04:33:43;;;;;;;14.63;2.22;;;24.30;99.90;;;;;;5074768;28;20489;-66
2022/02/28 04:36:10;;;;;;;10.85;1.67;;;24.30;99.90;;;;;;5073450;28;20024;-67
2022/02/28 04:38:37;;;;;;;15.27;1.77;;;24.30;99.90;;;;;;5068298;28;20464;-66
2022/02/28 04:41:04;;;;;;;10.50;1.90;;;24.30;99.90;;;;;;5072417;28;20036;-67
2022/02/28 04:43:32;;;;;;;13.48;2.30;;;24.30;99.90;;;;;;5070906;28;20040;-67
2022/02/28 04:45:59;;;;;;;13.48;1.67;;;24.20;99.90;;;;;;5066584;28;20021;-67
2022/02/28 04:48:26;;;;;;;20.00;2.20;;;24.00;99.90;;;;;;5060820;28;20024;-66
2022/02/28 04:50:55;;;;;;;13.88;2.60;;;23.90;99.90;;;;;;5078766;28;20488;-67
2022/02/28 04:53:26;;;;;;;9.40;2.15;;;23.70;99.90;;;;;;5060382;28;20025;-67
2022/02/28 04:55:54;;;;;;;11.75;2.30;;;23.50;99.90;;;;;;5063540;28;20518;-67
2022/02/28 04:58:21;;;;;;;12.73;2.05;;;23.10;99.90;;;;;;5058387;28;20081;-66
2022/02/28 05:00:49;;;;;;;12.70;3.08;;;22.80;99.90;;;;;;5060703;28;20040;-67
2022/02/28 05:03:16;;;;;;;14.75;3.40;;;22.60;99.90;;;;;;5061165;28;20035;-67
2022/02/28 05:05:43;;;;;;;14.00;2.15;;;22.50;99.90;;;;;;5067736;28;20039;-67
2022/02/28 05:08:11;;;;;;;17.27;3.22;;;22.50;99.90;;;;;;5071494;28;20029;-67
2022/02/28 05:10:38;;;;;;;14.63;3.15;;;22.50;99.90;;;;;;5071620;28;20434;-67
2022/02/28 05:13:06;;;;;;;12.02;2.00;;;22.50;99.90;;;;;;5073210;28;20107;-67
2022/02/28 05:15:33;;;;;;;11.10;1.75;;;22.30;99.90;;;;;;5063002;28;20024;-67
2022/02/28 05:18:00;;;;;;;7.78;1.33;;;22.40;99.90;;;;;;5071121;28;20029;-66
2022/02/28 05:20:28;;;;;;;19.05;3.67;;;22.30;99.90;;;;;;5070880;28;20021;-65
2022/02/28 05:22:55;;;;;;;9.30;1.75;;;22.20;99.90;;;;;;5065325;28;20540;-66
2022/02/28 05:25:23;;;;;;;13.70;1.77;;;22.10;99.90;;;;;;5064576;28;20438;-66
2022/02/28 05:27:50;;;;;;;8.45;1.38;;;21.90;99.90;;;;;;5066004;28;20037;-66
2022/02/28 05:30:18;;;;;;;13.20;1.90;;;21.80;99.90;;;;;;5067069;28;20502;-66
2022/02/28 05:32:45;;;;;;;13.13;2.65;;;21.70;99.90;;;;;;5070313;28;20029;-66
2022/02/28 05:35:14;;;;;;;12.07;2.13;;;21.60;99.90;;;;;;5068114;28;20033;-66
2022/02/28 05:37:42;;;;;;;11.32;1.98;;;21.70;99.90;;;;;;5066013;28;20055;-66
2022/02/28 05:40:12;;;;;;;8.68;1.85;;;21.70;99.90;;;;;;5070039;28;20017;-66
2022/02/28 05:42:39;;;;;;;13.48;2.45;;;21.70;99.90;;;;;;5070645;28;20643;-66
2022/02/28 05:45:08;;;;;;;10.95;1.75;;;21.60;99.90;;;;;;5069444;28;20126;-66
2022/02/28 05:47:35;;;;;;;9.60;1.77;;;21.60;99.90;;;;;;5074331;28;20021;-66
2022/02/28 05:50:03;;;;;;;11.75;2.00;;;21.60;99.90;;;;;;5068566;28;20028;-66
2022/02/28 05:52:31;;;;;;;11.50;1.77;;;21.60;99.90;;;;;;5068141;28;20058;-66
2022/02/28 05:54:58;;;;;;;11.30;2.50;;;21.70;99.90;;;;;;5074699;28;20063;-67
2022/02/28 05:57:25;;;;;;;15.15;2.45;;;21.70;99.90;;;;;;5069700;28;20384;-67
2022/02/28 05:59:52;;;;;;;10.15;2.00;;;21.70;99.90;;;;;;5070788;28;20024;-67
2022/02/28 06:02:20;;;;;;;10.32;1.67;;;21.80;99.90;;;;;;5071021;28;20480;-66
2022/02/28 06:04:47;;;;;;;10.20;2.20;;;21.70;99.90;;;;;;5069333;28;20427;-66
2022/02/28 06:07:14;;;;;;;10.63;1.77;;;21.80;99.90;;;;;;5065246;28;20020;-67
2022/02/28 06:09:41;;;;;;;13.88;2.60;;;21.80;99.90;;;;;;5066552;28;20611;-67
2022/02/28 06:12:10;;;;;;;14.60;1.95;;;21.80;99.90;;;;;;5069975;28;20040;-67
2022/02/28 06:14:37;;;;;;;9.57;2.15;;;21.90;99.90;;;;;;5068474;28;20027;-66
2022/02/28 06:17:04;;;;;;;12.65;2.08;;;21.80;99.90;;;;;;5068817;28;20031;-67
2022/02/28 06:19:32;;;;;;;15.38;2.65;;;21.80;99.90;;;;;;5074067;28;20424;-67
2022/02/28 06:21:59;;;;;;;9.88;2.17;;;21.90;99.90;;;;;;5065138;28;20021;-66
2022/02/28 06:24:27;;;;;;;9.85;2.17;;;21.80;99.90;;;;;;5067037;28;20021;-66
2022/02/28 06:26:54;;;;;;;12.00;2.38;;;21.90;99.90;;;;;;5067370;28;20028;-67
2022/02/28 06:29:22;;;;;;;14.38;2.60;;;21.90;99.90;;;;;;5070308;28;20049;-66
2022/02/28 06:31:49;;;;;;;13.43;1.95;;;21.90;99.90;;;;;;5071047;28;20024;-67
2022/02/28 06:34:16;;;;;;;12.50;2.00;;;21.80;99.90;;;;;;5065294;28;20051;-67
2022/02/28 06:36:44;;;;;;;12.10;2.38;;;21.80;99.90;;;;;;5068765;28;20029;-67
2022/02/28 06:39:11;;;;;;;11.45;2.47;;;21.90;99.90;;;;;;5066195;28;20384;-67
2022/02/28 06:41:38;;;;;;;12.90;1.63;;;21.90;99.90;;;;;;5068692;28;20109;-67
2022/02/28 06:44:07;;;;;;;10.55;2.60;;;21.80;99.90;;;;;;5061254;28;20464;-66
2022/02/28 06:46:34;;;;;;;9.38;1.83;;;21.80;99.90;;;;;;5069195;28;20025;-66
2022/02/28 06:49:02;;;;;;;10.70;2.28;;;21.80;99.90;;;;;;5066370;28;20040;-67
2022/02/28 06:51:29;;;;;;;8.10;2.17;;;21.80;99.90;;;;;;5062031;28;20052;-67
2022/02/28 06:53:56;;;;;;;9.93;2.28;;;21.80;99.90;;;;;;5069750;28;20029;-67
2022/02/28 06:56:24;;;;;;;10.07;2.17;;;21.90;99.90;;;;;;5072561;28;20408;-66
2022/02/28 06:58:51;;;;;;;10.57;2.10;;;21.90;99.90;;;;;;5073251;28;20527;-67
2022/02/28 07:01:19;;;;;;;8.32;1.92;;;21.80;99.90;;;;;;5071943;28;20145;-64
2022/02/28 07:03:46;;;;;;;6.07;1.50;;;21.80;99.90;;;;;;5070310;28;20036;-67
2022/02/28 07:06:20;;;;;;;7.90;1.25;;;21.90;99.90;;;;;;5071895;28;20086;-67
2022/02/28 07:08:48;;;;;;;4.32;1.02;;;21.90;99.90;;;;;;5073574;28;20066;-67
2022/02/28 07:11:16;;;;;;;9.57;1.17;;;21.90;99.90;;;;;;5065055;28;20017;-67
2022/02/28 07:13:43;;;;;;;13.63;1.70;;;21.80;99.90;;;;;;5070621;28;20416;-67
2022/02/28 07:16:11;;;;;;;10.38;1.73;;;21.70;99.90;;;;;;5072860;28;20383;-67
2022/02/28 07:18:38;;;;;;;11.05;1.70;;;21.70;99.90;;;;;;5067588;28;20127;-67
2022/02/28 07:21:05;;;;;;;8.15;1.00;;;21.70;99.90;;;;;;5073794;28;20499;-67
2022/02/28 07:23:33;;;;;;;4.47;1.00;;;21.70;99.90;;;;;;5059764;28;20029;-67
2022/02/28 07:26:00;;;;;;;8.25;1.20;;;21.70;99.90;;;;;;5070628;28;20107;-66
2022/02/28 07:28:27;;;;;;;11.63;1.98;;;21.80;99.90;;;;;;5072096;28;20037;-67
2022/02/28 07:30:55;;;;;;;8.00;1.15;;;21.70;99.90;;;;;;5074347;28;20098;-67
2022/02/28 07:33:22;;;;;;;7.75;1.48;;;21.70;99.90;;;;;;5071803;28;20013;-67
2022/02/28 07:35:49;;;;;;;6.20;1.30;;;21.70;99.90;;;;;;5071314;28;20025;-67
2022/02/28 07:38:16;;;;;;;5.88;1.00;;;21.80;99.90;;;;;;5071853;28;20054;-67
2022/02/28 07:40:44;;;;;;;8.43;1.35;;;21.70;99.90;;;;;;5071877;28;20023;-67
2022/02/28 07:43:11;;;;;;;3.35;0.70;;;21.70;99.90;;;;;;5063414;23;20181;-67
2022/02/28 07:45:38;;;;;;;6.65;0.85;;;21.60;99.90;;;;;;5003398;28;20033;-67
2022/02/28 07:48:06;;;;;;;7.43;1.50;;;21.60;99.90;;;;;;5011782;28;20034;-67
2022/02/28 07:50:33;;;;;;;8.48;1.27;;;21.60;99.90;;;;;;5004416;28;20030;-67
2022/02/28 07:53:00;;;;;;;9.70;1.25;;;21.60;99.90;;;;;;5010061;28;20022;-67
2022/02/28 07:55:27;;;;;;;6.35;1.23;;;21.60;99.90;;;;;;5006743;28;20105;-67
2022/02/28 07:57:55;;;;;;;6.43;1.75;;;21.70;99.90;;;;;;5012712;28;20045;-67
2022/02/28 08:00:23;;;;;;;9.02;1.30;;;21.70;99.90;;;;;;5005543;28;20155;-67
2022/02/28 08:02:52;;;;;;;10.70;1.60;;;21.70;99.90;;;;;;5008741;28;20022;-67
2022/02/28 08:05:20;;;;;;;6.18;1.77;;;21.70;99.90;;;;;;5011372;28;20037;-67
2022/02/28 08:07:47;;;;;;;8.18;1.65;;;21.70;99.90;;;;;;5007614;28;20981;-67
2022/02/28 08:10:14;;;;;;;7.47;1.35;;;21.60;99.90;;;;;;5011395;28;20402;-67
2022/02/28 08:12:42;;;;;;;4.15;1.10;;;21.60;99.90;;;;;;5010430;28;20072;-66
2022/02/28 08:15:10;;;;;;;5.38;1.63;;;21.50;99.90;;;;;;5010084;28;20516;-67
2022/02/28 08:17:37;;;;;;;5.72;1.10;;;21.60;99.90;;;;;;5005759;28;20028;-66
2022/02/28 08:20:06;;;;;;;4.60;0.98;;;21.50;99.90;;;;;;5010593;28;20367;-67
2022/02/28 08:22:33;;;;;;;6.35;1.20;;;21.40;99.90;;;;;;5008117;28;20077;-67
2022/02/28 08:25:00;;;;;;;7.78;1.55;;;21.40;99.90;;;;;;5012932;28;20040;-67
2022/02/28 08:27:28;;;;;;;7.85;2.25;;;21.40;99.90;;;;;;5009194;28;20478;-66
2022/02/28 08:29:55;;;;;;;6.95;2.83;;;21.40;99.90;;;;;;5007111;28;20083;-67
2022/02/28 08:32:22;;;;;;;9.85;2.75;;;21.40;99.90;;;;;;5011101;28;20034;-66
2022/02/28 08:34:50;;;;;;;7.53;3.08;;;21.50;99.90;;;;;;5006605;28;20018;-67
2022/02/28 08:37:17;;;;;;;8.38;2.90;;;21.50;99.90;;;;;;5007573;28;20040;-67
2022/02/28 08:39:44;;;;;;;10.02;2.95;;;21.50;99.90;;;;;;5010903;28;20117;-67
2022/02/28 08:42:12;;;;;;;9.48;2.38;;;21.50;99.90;;;;;;5010467;28;20066;-67
2022/02/28 08:44:40;;;;;;;9.90;2.30;;;21.40;99.90;;;;;;5010084;28;20054;-67
2022/02/28 08:47:07;;;;;;;7.57;2.08;;;21.50;99.90;;;;;;5006514;28;20023;-67
2022/02/28 08:49:35;;;;;;;7.90;1.77;;;21.40;99.90;;;;;;5005644;28;20040;-67
2022/02/28 08:52:05;;;;;;;9.10;2.47;;;21.50;99.90;;;;;;4993788;28;20427;-67
2022/02/28 08:54:34;;;;;;;8.52;1.75;;;21.50;99.90;;;;;;5008955;28;20022;-66
2022/02/28 08:57:03;;;;;;;7.05;1.90;;;21.50;99.90;;;;;;5014220;28;20030;-66
2022/02/28 08:59:36;;;;;;;8.10;1.58;;;21.30;99.90;;;;;;5014307;28;20021;-66
2022/02/28 09:02:04;;;;;;;6.78;2.22;;;21.20;99.90;;;;;;5007608;28;20514;-66
2022/02/28 09:04:31;;;;;;;8.90;1.75;;;21.10;99.90;;;;;;5012108;28;20076;-66
2022/02/28 09:06:59;;;;;;;10.60;1.90;;;21.10;99.90;;;;;;5004326;28;20092;-66
2022/02/28 09:09:26;;;;;;;9.63;2.33;;;21.10;99.90;;;;;;5011121;28;20033;-66
2022/02/28 09:11:54;;;;;;;9.60;2.50;;;21.20;99.90;;;;;;5014201;28;20038;-66
2022/02/28 09:14:22;;;;;;;12.02;2.83;;;21.10;99.90;;;;;;5004538;28;20386;-66
2022/02/28 09:16:49;;;;;;;9.15;2.00;;;21.10;99.90;;;;;;5011121;28;20053;-66
2022/02/28 09:19:16;;;;;;;9.50;1.98;;;21.20;99.90;;;;;;5016427;28;20050;-66
2022/02/28 09:21:44;;;;;;;6.60;1.60;;;21.10;99.90;;;;;;5007693;28;20041;-66
2022/02/28 09:24:11;;;;;;;7.85;1.95;;;21.10;99.90;;;;;;5008309;28;20018;-66
2022/02/28 09:26:39;;;;;;;5.97;1.50;;;21.20;99.90;;;;;;5015892;28;20371;-66
2022/02/28 09:29:07;;;;;;;7.47;1.63;;;21.10;99.90;;;;;;5015654;28;20033;-66
2022/02/28 09:31:34;;;;;;;6.10;1.55;;;21.10;99.90;;;;;;5017520;28;20033;-66
2022/02/28 09:34:02;;;;;;;6.47;1.52;;;21.10;99.90;;;;;;5014384;28;20113;-66
2022/02/28 09:36:30;;;;;;;7.63;1.80;;;21.00;99.90;;;;;;5002064;28;20026;-66
2022/02/28 09:38:58;;;;;;;8.25;1.33;;;20.90;99.90;;;;;;5014119;28;20030;-66
2022/02/28 09:41:26;;;;;;;4.90;1.00;;;20.90;99.90;;;;;;4997415;28;20034;-66
2022/02/28 09:43:54;;;;;;;7.85;1.20;;;20.90;99.90;;;;;;5000356;28;20050;-66
2022/02/28 09:46:23;;;;;;;10.10;1.50;;;20.90;99.90;;;;;;4996645;28;20121;-66
2022/02/28 09:48:50;;;;;;;7.25;1.20;;;20.90;99.90;;;;;;5015871;28;20034;-67
2022/02/28 09:51:18;;;;;;;9.02;1.42;;;20.90;99.90;;;;;;5006632;28;20025;-66
2022/02/28 09:53:54;;;;;;;8.18;1.40;;;20.90;99.90;;;;;;5004866;28;20037;-66
2022/02/28 09:56:25;;;;;;;8.80;1.75;;;20.90;99.90;;;;;;5006450;28;20058;-66
2022/02/28 09:58:52;;;;;;;6.45;1.67;;;20.90;99.90;;;;;;5014858;28;20029;-66
2022/02/28 10:01:19;;;;;;;7.95;1.48;;;20.90;99.90;;;;;;5018751;28;20030;-66
2022/02/28 10:03:47;;;;;;;7.88;1.58;;;20.90;99.90;;;;;;5014386;28;20064;-66
2022/02/28 10:06:14;;;;;;;13.50;1.70;;;20.90;99.90;;;;;;5009053;28;20124;-66
2022/02/28 10:08:47;;;;;;;7.38;1.63;;;20.90;99.90;;;;;;5008174;28;20034;-68
2022/02/28 10:11:24;;;;;;;15.85;1.83;;;20.90;99.90;;;;;;5006492;28;20026;-68
2022/02/28 10:14:00;;;;;;;11.15;1.85;;;20.90;99.90;;;;;;5009648;28;20033;-69
2022/02/28 10:16:36;;;;;;;7.55;1.63;;;20.90;99.90;;;;;;5008854;28;20597;-67
2022/02/28 10:19:07;;;;;;;7.68;1.45;;;20.90;99.90;;;;;;5008575;28;20030;-68
2022/02/28 10:21:47;;;;;;;6.03;1.50;;;20.80;99.90;;;;;;5009856;28;20018;-67
2022/02/28 10:24:18;;;;;;;6.75;1.30;;;20.80;99.90;;;;;;5004495;28;20030;-67
2022/02/28 10:26:47;;;;;;;9.43;2.28;;;20.80;99.90;;;;;;5014974;28;20145;-68
2022/02/28 10:29:20;;;;;;;4.85;1.38;;;20.80;99.90;;;;;;5014941;28;20041;-67
2022/02/28 10:31:48;;;;;;;12.32;2.03;;;20.80;99.90;;;;;;5015926;28;20105;-68
2022/02/28 10:34:21;;;;;;;7.53;1.80;;;20.80;99.90;;;;;;5015818;28;20119;-68
2022/02/28 10:37:08;;;;;;;9.25;2.22;;;20.70;99.90;;;;;;5002736;28;20372;-68
2022/02/28 10:39:42;;;;;;;8.45;2.08;;;20.70;99.90;;;;;;5013151;28;20022;-68
2022/02/28 10:42:18;;;;;;;6.15;1.45;;;20.70;99.90;;;;;;5010717;28;20026;-68
2022/02/28 10:44:46;;;;;;;7.45;2.03;;;20.70;99.90;;;;;;5005089;28;20129;-68
2022/02/28 10:47:14;;;;;;;15.82;2.42;;;20.70;99.90;;;;;;5014466;28;20064;-68
2022/02/28 10:49:42;;;;;;;10.13;1.92;;;20.60;99.90;;;;;;5013943;28;20083;-68
2022/02/28 10:52:12;;;;;;;8.52;1.50;;;20.60;99.90;;;;;;5002690;28;20026;-68
2022/02/28 10:54:44;;;;;;;14.05;3.13;;;20.70;99.90;;;;;;5008435;28;20029;-68
2022/02/28 10:57:13;;;;;;;9.30;2.25;;;20.60;99.90;;;;;;5004838;28;20045;-68
2022/02/28 10:59:54;;;;;;;7.57;2.28;;;20.70;99.90;;;;;;5002372;28;20040;-68
2022/02/28 11:02:28;;;;;;;6.60;1.92;;;20.70;99.90;;;;;;5011359;28;20037;-68
2022/02/28 11:05:12;;;;;;;7.63;2.28;;;20.70;99.90;;;;;;5002125;28;20030;-68
2022/02/28 11:07:45;;;;;;;7.53;1.35;;;20.80;99.90;;;;;;5014289;28;20029;-68
2022/02/28 11:10:17;;;;;;;8.52;1.90;;;20.70;99.90;;;;;;5013791;28;20067;-68
2022/02/28 11:12:46;;;;;;;7.05;2.00;;;20.70;99.90;;;;;;5011468;28;20069;-69
2022/02/28 11:15:18;;;;;;;7.95;2.03;;;20.70;99.90;;;;;;5011558;28;20041;-69
2022/02/28 11:17:46;;;;;;;8.80;2.38;;;20.70;99.90;;;;;;5014187;28;20497;-68
2022/02/28 11:20:16;;;;;;;5.45;1.60;;;20.70;99.90;;;;;;5009432;28;20030;-68
2022/02/28 11:22:47;;;;;;;6.28;1.95;;;20.70;99.90;;;;;;5013996;28;20022;-68
2022/02/28 11:25:18;;;;;;;6.45;1.95;;;20.70;99.90;;;;;;5007031;28;20041;-68
2022/02/28 11:27:48;;;;;;;8.90;2.00;;;20.80;99.90;;;;;;5003382;28;20031;-68
2022/02/28 11:30:23;;;;;;;10.70;2.15;;;20.70;99.90;;;;;;4997106;28;20033;-67
2022/02/28 11:33:04;;;;;;;9.98;3.83;;;20.70;99.90;;;;;;5014008;28;20030;-68
2022/02/28 11:35:53;;;;;;;12.32;2.60;;;20.80;99.90;;;;;;5009312;28;20156;-68
2022/02/28 11:38:20;;;;;;;7.13;2.00;;;20.80;99.90;;;;;;5010597;28;20146;-68
2022/02/28 11:41:07;;;;;;;8.68;2.67;;;20.80;99.90;;;;;;5013599;28;20490;-68
2022/02/28 11:43:51;;;;;;;10.43;2.25;;;20.80;99.90;;;;;;5002608;28;20054;-68
2022/02/28 11:46:23;;;;;;;12.82;2.17;;;20.70;99.90;;;;;;4994618;28;20037;-68
2022/02/28 11:48:56;;;;;;;6.22;1.83;;;20.70;99.90;;;;;;5005614;28;20069;-67
2022/02/28 11:51:26;;;;;;;10.15;2.30;;;20.80;99.90;;;;;;5004656;28;20542;-68
2022/02/28 11:54:03;;;;;;;6.20;1.65;;;20.80;99.90;;;;;;5009137;28;20030;-68
2022/02/28 11:56:39;;;;;;;6.45;2.15;;;20.80;99.90;;;;;;5007503;28;20033;-68
2022/02/28 11:59:18;;;;;;;9.45;2.10;;;20.70;99.90;;;;;;5013288;28;20125;-67
2022/02/28 12:01:55;;;;;;;11.23;1.85;;;20.60;99.90;;;;;;5013241;28;20064;-68
2022/02/28 12:04:43;;;;;;;9.57;1.88;;;20.60;99.90;;;;;;5003565;28;20018;-67
2022/02/28 12:07:23;;;;;;;6.75;1.75;;;20.50;99.90;;;;;;5009686;28;20021;-67
2022/02/28 12:09:59;;;;;;;14.35;2.85;;;20.60;99.90;;;;;;4994164;28;20030;-67
2022/02/28 12:12:33;;;;;;;7.13;1.73;;;20.60;99.90;;;;;;5005815;28;20030;-67
2022/02/28 12:15:01;;;;;;;9.82;1.92;;;20.60;99.90;;;;;;5007923;28;20117;-67
2022/02/28 12:17:32;;;;;;;8.07;2.38;;;20.60;99.90;;;;;;5013222;28;20022;-67
2022/02/28 12:20:28;;;;;;;9.35;2.60;;;20.60;99.90;;;;;;5008947;28;20052;-67
2022/02/28 12:23:03;;;;;;;9.38;2.25;;;20.70;99.90;;;;;;5009989;28;20068;-67
2022/02/28 12:25:49;;;;;;;10.65;2.65;;;20.70;99.90;;;;;;5008643;28;20032;-67
2022/02/28 12:28:26;;;;;;;10.63;2.30;;;20.70;99.90;;;;;;5011252;28;20470;-67
2022/02/28 12:31:04;;;;;;;9.55;2.17;;;20.80;99.90;;;;;;5009675;28;20030;-67
2022/02/28 12:33:35;;;;;;;9.95;2.60;;;20.80;99.90;;;;;;5006384;28;20046;-67
2022/02/28 12:36:07;;;;;;;10.35;2.70;;;20.70;99.90;;;;;;5010207;28;20028;-66
2022/02/28 12:38:40;;;;;;;5.63;2.05;;;20.80;99.90;;;;;;5010250;28;20394;-67
2022/02/28 12:41:26;;;;;;;10.05;2.28;;;20.80;99.90;;;;;;5010824;28;20029;-67
2022/02/28 12:43:55;;;;;;;6.47;2.05;;;20.80;99.90;;;;;;5002855;28;20487;-67
2022/02/28 12:46:26;;;;;;;11.15;2.75;;;20.80;99.90;;;;;;5010835;28;20585;-67
2022/02/28 12:48:55;;;;;;;9.20;2.45;;;20.70;99.90;;;;;;5010307;28;20042;-67
2022/02/28 12:51:27;;;;;;;8.38;1.80;;;20.70;99.90;;;;;;5006438;28;20026;-67
2022/02/28 12:54:14;;;;;;;13.18;2.00;;;20.70;99.90;;;;;;5002229;28;20108;-67